createdAt,value
2019-01-31T00:00:40.677Z,2.53
2019-01-31T00:03:27.283Z,6.00
2019-01-31T00:06:10.824Z,4.50
2019-01-31T00:09:00.515Z,4.50
2019-01-31T00:11:34.749Z,5.93
2019-01-31T00:14:23.345Z,3.93
2019-01-31T00:16:57.871Z,10.57
2019-01-31T00:19:35.002Z,4.23
2019-01-31T00:22:18.426Z,3.60
2019-01-31T00:24:59.342Z,4.70
2019-01-31T00:27:33.497Z,4.80
2019-01-31T00:30:13.886Z,4.50
2019-01-31T00:33:14.329Z,5.03
2019-01-31T00:35:45.910Z,4.00
2019-01-31T00:38:32.594Z,10.60
2019-01-31T00:41:39.081Z,4.53
2019-01-31T00:44:13.253Z,2.30
2019-01-31T00:46:57.154Z,2.90
2019-01-31T00:49:28.771Z,3.77
2019-01-31T00:52:00.407Z,5.17
2019-01-31T00:54:34.944Z,3.90
2019-01-31T00:57:06.581Z,5.07
2019-01-31T00:59:53.134Z,5.83
2019-01-31T01:02:46.065Z,5.90
2019-01-31T01:05:26.070Z,4.13
2019-01-31T01:08:06.691Z,4.10
2019-01-31T01:10:50.174Z,2.97
2019-01-31T01:13:42.766Z,3.97
2019-01-31T01:16:20.418Z,5.87
2019-01-31T01:19:10.322Z,5.50
2019-01-31T01:21:56.519Z,8.33
2019-01-31T01:24:43.162Z,6.43
2019-01-31T01:27:23.818Z,4.83
2019-01-31T01:30:04.034Z,6.33
2019-01-31T01:32:44.377Z,6.13
2019-01-31T01:35:18.761Z,6.63
2019-01-31T01:37:58.716Z,2.70
2019-01-31T01:40:42.173Z,6.10
2019-01-31T01:43:25.987Z,5.50
2019-01-31T01:46:17.152Z,6.03
2019-01-31T01:49:05.335Z,5.60
2019-01-31T01:51:39.546Z,6.07
2019-01-31T01:54:14.050Z,5.00
2019-01-31T01:57:03.354Z,6.80
2019-01-31T01:59:44.332Z,3.10
2019-01-31T02:02:38.422Z,9.83
2019-01-31T02:05:32.470Z,7.30
2019-01-31T02:08:06.709Z,7.53
2019-01-31T02:10:47.110Z,5.20
2019-01-31T02:13:24.766Z,7.17
2019-01-31T02:16:05.215Z,6.13
2019-01-31T02:18:42.857Z,5.73
2019-01-31T02:21:37.186Z,7.60
2019-01-31T02:24:11.622Z,5.53
2019-01-31T02:26:55.121Z,5.57
2019-01-31T02:29:32.315Z,23.20
2019-01-31T02:32:19.074Z,5.07
2019-01-31T02:35:14.142Z,7.43
2019-01-31T02:38:12.383Z,6.03
2019-01-31T02:40:46.426Z,8.80
2019-01-31T02:43:20.781Z,5.57
2019-01-31T02:46:01.255Z,6.07
2019-01-31T02:48:41.694Z,3.20
2019-01-31T02:51:16.066Z,5.97
2019-01-31T02:53:56.822Z,5.93
2019-01-31T02:56:30.914Z,7.57
2019-01-31T02:59:23.199Z,5.03
2019-01-31T03:02:00.481Z,7.70
2019-01-31T03:04:37.966Z,5.53
2019-01-31T03:07:12.209Z,6.97
2019-01-31T03:10:02.137Z,6.00
2019-01-31T03:12:39.258Z,5.43
2019-01-31T03:15:19.173Z,7.00
2019-01-31T03:17:56.514Z,5.13
2019-01-31T03:20:31.358Z,4.63
2019-01-31T03:23:02.974Z,6.67
2019-01-31T03:25:52.638Z,8.30
2019-01-31T03:28:26.681Z,6.37
2019-01-31T03:31:10.028Z,5.23
2019-01-31T03:33:50.562Z,10.53
2019-01-31T03:36:37.385Z,4.80
2019-01-31T03:39:39.473Z,7.23
2019-01-31T03:42:13.657Z,5.67
2019-01-31T03:44:51.205Z,8.30
2019-01-31T03:47:22.855Z,6.40
2019-01-31T03:50:06.673Z,8.13
2019-01-31T03:52:55.373Z,4.00
2019-01-31T03:55:32.646Z,4.13
2019-01-31T03:58:12.911Z,10.73
2019-01-31T04:00:50.409Z,4.60
2019-01-31T04:03:21.992Z,8.50
2019-01-31T04:05:54.479Z,5.47
2019-01-31T04:08:23.056Z,7.80
2019-01-31T04:10:51.650Z,5.03
2019-01-31T04:13:20.218Z,12.00
2019-01-31T04:15:48.750Z,4.37
2019-01-31T04:18:17.583Z,7.10
2019-01-31T04:20:46.137Z,6.97
2019-01-31T04:23:14.949Z,7.83
2019-01-31T04:25:43.494Z,7.80
2019-01-31T04:28:12.062Z,4.80
2019-01-31T04:30:40.597Z,4.13
2019-01-31T04:33:09.164Z,6.10
2019-01-31T04:35:37.705Z,9.90
2019-01-31T04:38:06.337Z,9.27
2019-01-31T04:40:34.877Z,9.17
2019-01-31T04:43:03.448Z,7.00
2019-01-31T04:45:31.981Z,7.33
2019-01-31T04:48:00.759Z,7.80
2019-01-31T04:50:29.293Z,9.37
2019-01-31T04:52:57.858Z,13.40
2019-01-31T04:55:26.470Z,7.77
2019-01-31T04:57:55.034Z,6.77
2019-01-31T05:00:23.649Z,9.17
2019-01-31T05:02:52.555Z,6.60
2019-01-31T05:05:21.086Z,5.90
2019-01-31T05:07:49.572Z,4.60
2019-01-31T05:10:18.106Z,4.30
2019-01-31T05:12:46.664Z,3.90
2019-01-31T05:15:15.350Z,7.57
2019-01-31T05:17:44.002Z,3.77
2019-01-31T05:20:17.838Z,6.97
2019-01-31T05:22:46.397Z,7.30
2019-01-31T05:25:15.377Z,4.93
2019-01-31T05:27:43.941Z,6.30
2019-01-31T05:30:15.109Z,6.40
2019-01-31T05:32:44.019Z,8.40
2019-01-31T05:35:12.904Z,5.40
2019-01-31T05:37:41.793Z,4.00
2019-01-31T05:40:13.070Z,5.63
2019-01-31T05:42:41.538Z,3.20
2019-01-31T05:45:14.806Z,4.33
2019-01-31T05:47:43.346Z,4.00
2019-01-31T05:50:18.422Z,3.23
2019-01-31T05:52:46.964Z,3.63
2019-01-31T05:55:15.889Z,4.50
2019-01-31T05:57:44.510Z,8.17
2019-01-31T06:00:19.433Z,3.97
2019-01-31T06:02:47.967Z,5.50
2019-01-31T06:05:16.764Z,5.03
2019-01-31T06:07:45.299Z,4.23
2019-01-31T06:10:14.039Z,5.47
2019-01-31T06:12:42.578Z,3.90
2019-01-31T06:15:19.104Z,7.70
2019-01-31T06:17:47.644Z,6.77
2019-01-31T06:20:19.313Z,4.20
2019-01-31T06:22:47.909Z,6.80
2019-01-31T06:25:16.403Z,4.97
2019-01-31T06:27:45.081Z,5.90
2019-01-31T06:30:18.155Z,8.30
2019-01-31T06:32:47.131Z,8.93
2019-01-31T06:35:16.328Z,6.00
2019-01-31T06:37:44.789Z,4.90
2019-01-31T06:40:16.190Z,4.67
2019-01-31T06:42:45.147Z,5.70
2019-01-31T06:45:19.139Z,5.07
2019-01-31T06:47:47.673Z,4.80
2019-01-31T06:50:16.378Z,5.57
2019-01-31T06:52:45.056Z,13.47
2019-01-31T06:55:13.758Z,5.60
2019-01-31T06:57:42.285Z,5.93
2019-01-31T07:00:14.093Z,8.33
2019-01-31T07:02:42.630Z,5.00
2019-01-31T07:05:11.732Z,5.23
2019-01-31T07:07:40.422Z,4.57
2019-01-31T07:10:23.277Z,4.43
2019-01-31T07:12:51.891Z,5.53
2019-01-31T07:15:20.859Z,5.67
2019-01-31T07:17:49.393Z,4.97
2019-01-31T07:20:18.324Z,6.53
2019-01-31T07:22:46.863Z,8.23
2019-01-31T07:25:21.241Z,4.60
2019-01-31T07:27:50.026Z,5.63
2019-01-31T07:30:21.590Z,4.67
2019-01-31T07:32:50.446Z,4.53
2019-01-31T07:35:19.348Z,8.53
2019-01-31T07:37:48.512Z,4.40
2019-01-31T07:40:22.782Z,16.67
2019-01-31T07:42:51.297Z,16.23
2019-01-31T07:45:25.719Z,15.97
2019-01-31T07:47:54.318Z,12.40
2019-01-31T07:50:23.229Z,8.93
2019-01-31T07:52:51.931Z,4.10
2019-01-31T07:55:20.638Z,4.97
2019-01-31T07:57:49.186Z,6.70
2019-01-31T08:00:20.070Z,5.87
2019-01-31T08:02:48.604Z,6.70
2019-01-31T08:05:19.097Z,7.73
2019-01-31T08:07:48.521Z,6.93
2019-01-31T08:10:25.677Z,7.10
2019-01-31T08:12:54.423Z,10.80
2019-01-31T08:15:23.000Z,3.70
2019-01-31T08:17:51.742Z,5.57
2019-01-31T08:20:20.961Z,4.73
2019-01-31T08:22:49.495Z,4.27
2019-01-31T08:25:23.610Z,2.80
2019-01-31T08:27:53.173Z,4.90
2019-01-31T08:30:24.377Z,4.27
2019-01-31T08:32:52.843Z,3.93
2019-01-31T08:35:21.463Z,7.03
2019-01-31T08:37:50.016Z,3.13
2019-01-31T08:40:18.627Z,4.53
2019-01-31T08:42:47.282Z,4.50
2019-01-31T08:45:16.167Z,3.60
2019-01-31T08:47:44.743Z,7.07
2019-01-31T08:50:22.058Z,3.53
2019-01-31T08:52:50.778Z,5.73
2019-01-31T08:55:19.246Z,2.80
2019-01-31T08:57:48.050Z,5.37
2019-01-31T09:00:22.187Z,4.30
2019-01-31T09:02:50.830Z,5.60
2019-01-31T09:05:19.434Z,4.00
2019-01-31T09:07:48.354Z,3.20
2019-01-31T09:10:22.099Z,8.70
2019-01-31T09:12:51.032Z,4.93
2019-01-31T09:15:24.589Z,3.13
2019-01-31T09:17:53.294Z,4.20
2019-01-31T09:20:24.946Z,5.03
2019-01-31T09:23:02.423Z,2.33
2019-01-31T09:25:53.570Z,3.03
2019-01-31T09:28:36.462Z,7.60
2019-01-31T09:31:08.087Z,2.80
2019-01-31T09:34:03.823Z,3.70
2019-01-31T09:36:38.184Z,4.53
2019-01-31T09:39:18.599Z,4.97
2019-01-31T09:42:05.182Z,4.20
2019-01-31T09:44:39.147Z,2.87
2019-01-31T09:47:35.140Z,3.20
2019-01-31T09:50:09.326Z,6.60
2019-01-31T09:52:46.546Z,11.37
2019-01-31T09:55:37.709Z,4.90
2019-01-31T09:58:14.822Z,5.13
2019-01-31T10:00:49.512Z,4.47
2019-01-31T10:03:34.886Z,2.97
2019-01-31T10:06:23.281Z,5.13
2019-01-31T10:08:57.781Z,3.90
2019-01-31T10:11:29.688Z,4.27
2019-01-31T10:14:27.133Z,3.33
2019-01-31T10:17:16.733Z,4.50
2019-01-31T10:20:21.817Z,9.37
2019-01-31T10:23:17.938Z,5.53
2019-01-31T10:25:58.050Z,4.40
2019-01-31T10:28:32.422Z,4.30
2019-01-31T10:31:07.067Z,5.93
2019-01-31T10:33:44.654Z,2.80
2019-01-31T10:36:28.368Z,3.40
2019-01-31T10:39:08.734Z,3.03
2019-01-31T10:41:52.359Z,2.63
2019-01-31T10:44:26.880Z,4.70
2019-01-31T10:47:14.825Z,4.33
2019-01-31T10:49:52.288Z,2.70
2019-01-31T10:52:36.137Z,3.93
2019-01-31T10:55:31.429Z,3.67
2019-01-31T10:58:03.065Z,3.90
2019-01-31T11:00:37.458Z,8.20
2019-01-31T11:03:17.906Z,2.50
2019-01-31T11:05:58.362Z,3.90
2019-01-31T11:08:38.609Z,4.30
2019-01-31T11:11:15.978Z,7.47
2019-01-31T11:13:50.099Z,6.23
2019-01-31T11:16:36.918Z,3.10
2019-01-31T11:19:12.719Z,3.10
2019-01-31T11:22:02.781Z,6.60
2019-01-31T11:24:37.792Z,5.33
2019-01-31T11:27:28.426Z,13.30
2019-01-31T11:30:08.691Z,4.17
2019-01-31T11:33:05.829Z,4.20
2019-01-31T11:36:02.846Z,3.97
2019-01-31T11:38:40.201Z,2.90
2019-01-31T11:41:31.646Z,3.83
2019-01-31T11:44:19.672Z,4.30
2019-01-31T11:46:51.279Z,3.23
2019-01-31T11:49:41.054Z,10.80
2019-01-31T11:52:15.670Z,15.57
2019-01-31T11:54:56.178Z,5.17
2019-01-31T11:57:44.270Z,6.47
2019-01-31T12:00:17.602Z,4.00
2019-01-31T12:02:54.709Z,4.40
2019-01-31T12:05:16.700Z,4.07
2019-01-31T12:07:45.234Z,4.30
2019-01-31T12:10:14.049Z,7.80
2019-01-31T12:12:43.846Z,3.20
2019-01-31T12:15:12.678Z,3.47
2019-01-31T12:17:41.651Z,4.33
2019-01-31T12:20:16.246Z,5.63
2019-01-31T12:22:45.222Z,6.60
2019-01-31T12:25:14.181Z,6.63
2019-01-31T12:27:42.826Z,3.80
2019-01-31T12:30:23.467Z,5.87
2019-01-31T12:32:52.003Z,3.03
2019-01-31T12:35:20.563Z,3.57
2019-01-31T12:37:49.173Z,3.50
2019-01-31T12:40:18.799Z,5.77
2019-01-31T12:42:47.865Z,3.17
2019-01-31T12:45:18.569Z,4.97
2019-01-31T12:47:47.101Z,5.50
2019-01-31T12:50:18.476Z,3.40
2019-01-31T12:52:47.026Z,6.40
2019-01-31T12:55:15.668Z,12.93
2019-01-31T12:57:44.541Z,4.20
2019-01-31T13:00:24.798Z,5.90
2019-01-31T13:02:53.461Z,5.33
2019-01-31T13:05:22.261Z,5.40
2019-01-31T13:07:50.750Z,4.00
2019-01-31T13:10:19.427Z,3.47
2019-01-31T13:12:49.240Z,7.00
2019-01-31T13:15:17.892Z,3.70
2019-01-31T13:17:46.528Z,3.53
2019-01-31T13:20:20.529Z,4.03
2019-01-31T13:22:54.246Z,3.07
2019-01-31T13:25:24.286Z,4.00
2019-01-31T13:27:53.110Z,4.40
2019-01-31T13:30:23.509Z,6.50
2019-01-31T13:32:54.336Z,2.80
2019-01-31T13:35:22.867Z,4.33
2019-01-31T13:37:54.476Z,5.93
2019-01-31T13:40:24.965Z,4.10
2019-01-31T13:42:53.951Z,4.40
2019-01-31T13:45:28.142Z,5.00
2019-01-31T13:47:57.631Z,3.77
2019-01-31T13:50:26.162Z,3.50
2019-01-31T13:52:54.790Z,2.80
2019-01-31T13:55:28.238Z,3.77
2019-01-31T13:57:56.930Z,3.77
2019-01-31T14:00:25.801Z,5.00
2019-01-31T14:02:54.509Z,3.13
2019-01-31T14:05:23.403Z,4.77
2019-01-31T14:07:52.302Z,5.13
2019-01-31T14:10:25.782Z,4.53
2019-01-31T14:12:54.774Z,7.10
2019-01-31T14:15:33.373Z,3.50
2019-01-31T14:17:59.965Z,4.30
2019-01-31T14:20:29.565Z,3.10
2019-01-31T14:22:58.195Z,4.10
2019-01-31T14:25:26.719Z,5.43
2019-01-31T14:27:55.448Z,5.07
2019-01-31T14:30:32.682Z,4.60
2019-01-31T14:33:01.654Z,3.70
2019-01-31T14:35:30.724Z,3.30
2019-01-31T14:37:59.554Z,4.20
2019-01-31T14:40:28.150Z,4.40
2019-01-31T14:42:57.436Z,3.77
2019-01-31T14:45:26.440Z,4.80
2019-01-31T14:47:55.835Z,4.40
2019-01-31T14:50:29.926Z,6.30
2019-01-31T14:52:58.461Z,3.27
2019-01-31T14:55:27.026Z,3.07
2019-01-31T14:57:55.549Z,3.33
2019-01-31T15:00:29.274Z,3.33
2019-01-31T15:02:57.874Z,3.87
2019-01-31T15:05:26.435Z,3.00
2019-01-31T15:07:55.034Z,3.63
2019-01-31T15:10:26.131Z,4.47
2019-01-31T15:12:55.098Z,3.63
2019-01-31T15:15:23.675Z,5.83
2019-01-31T15:17:53.136Z,4.43
2019-01-31T15:20:35.964Z,5.17
2019-01-31T15:22:57.335Z,4.80
2019-01-31T15:25:25.959Z,3.30
2019-01-31T15:27:54.481Z,4.80
2019-01-31T15:30:36.806Z,3.63
2019-01-31T15:33:08.098Z,3.27
2019-01-31T15:35:36.959Z,5.13
2019-01-31T15:38:05.723Z,3.10
2019-01-31T15:40:37.368Z,6.40
2019-01-31T15:43:06.692Z,5.23
2019-01-31T15:45:35.585Z,3.50
2019-01-31T15:48:04.758Z,4.10
2019-01-31T15:50:54.175Z,2.87
2019-01-31T15:53:22.778Z,3.13
2019-01-31T15:55:51.268Z,3.50
2019-01-31T15:58:20.190Z,3.60
2019-01-31T16:00:50.590Z,5.43
2019-01-31T16:03:20.438Z,4.33
2019-01-31T16:05:49.625Z,5.20
2019-01-31T16:08:18.297Z,6.67
2019-01-31T16:10:47.190Z,7.10
2019-01-31T16:13:15.721Z,6.10
2019-01-31T16:15:44.357Z,7.83
2019-01-31T16:18:13.598Z,7.27
2019-01-31T16:20:42.687Z,8.73
2019-01-31T16:23:11.753Z,11.10
2019-01-31T16:25:40.728Z,7.57
2019-01-31T16:28:09.427Z,7.23
2019-01-31T16:30:38.069Z,5.90
2019-01-31T16:33:06.665Z,7.20
2019-01-31T16:35:35.434Z,6.60
2019-01-31T16:38:04.359Z,10.93
2019-01-31T16:40:32.894Z,10.37
2019-01-31T16:43:01.589Z,7.60
2019-01-31T16:45:30.398Z,8.83
2019-01-31T16:47:59.026Z,9.50
2019-01-31T16:50:27.556Z,8.57
2019-01-31T16:52:56.110Z,8.63
2019-01-31T16:55:29.734Z,7.90
2019-01-31T16:57:59.066Z,10.17
2019-01-31T17:00:32.607Z,11.23
2019-01-31T17:03:01.300Z,8.70
2019-01-31T17:05:31.882Z,12.10
2019-01-31T17:08:00.773Z,10.40
2019-01-31T17:10:29.406Z,12.90
2019-01-31T17:12:58.030Z,9.60
2019-01-31T17:15:27.306Z,20.90
2019-01-31T17:17:56.002Z,8.30
2019-01-31T17:20:30.151Z,28.07
2019-01-31T17:22:58.777Z,12.03
2019-01-31T17:25:27.641Z,6.83
2019-01-31T17:27:56.210Z,5.33
2019-01-31T17:30:26.586Z,5.17
2019-01-31T17:32:55.238Z,5.70
2019-01-31T17:35:24.312Z,4.80
2019-01-31T17:37:52.864Z,6.17
2019-01-31T17:40:35.750Z,13.50
2019-01-31T17:43:05.333Z,20.00
2019-01-31T17:45:33.942Z,16.20
2019-01-31T17:48:02.591Z,10.70
2019-01-31T17:50:31.183Z,6.53
2019-01-31T17:52:59.713Z,8.10
2019-01-31T17:55:28.605Z,5.50
2019-01-31T17:57:57.141Z,6.57
2019-01-31T18:00:39.053Z,11.07
2019-01-31T18:03:08.225Z,20.23
2019-01-31T18:05:36.875Z,9.87
2019-01-31T18:08:09.123Z,7.33
2019-01-31T18:10:36.957Z,5.87
2019-01-31T18:13:05.761Z,5.67
2019-01-31T18:15:41.798Z,4.60
2019-01-31T18:18:05.382Z,5.40
2019-01-31T18:20:33.932Z,6.43
2019-01-31T18:23:02.458Z,8.47
2019-01-31T18:25:31.132Z,6.80
2019-01-31T18:27:59.737Z,9.20
2019-01-31T18:30:30.647Z,6.73
2019-01-31T18:32:59.322Z,10.13
2019-01-31T18:35:28.022Z,10.90
2019-01-31T18:37:56.625Z,12.10
2019-01-31T18:40:27.449Z,11.47
2019-01-31T18:42:55.912Z,8.77
2019-01-31T18:45:29.534Z,10.87
2019-01-31T18:47:58.413Z,8.77
2019-01-31T18:50:29.759Z,7.63
2019-01-31T18:52:58.454Z,9.40
2019-01-31T18:55:28.021Z,9.43
2019-01-31T18:57:56.704Z,9.77
2019-01-31T19:00:39.477Z,12.30
2019-01-31T19:03:08.248Z,8.60
2019-01-31T19:05:36.875Z,9.83
2019-01-31T19:08:08.861Z,11.97
2019-01-31T19:10:42.609Z,14.57
2019-01-31T19:13:06.351Z,15.50
2019-01-31T19:15:35.257Z,11.30
2019-01-31T19:18:05.922Z,10.40
2019-01-31T19:20:34.534Z,11.23
2019-01-31T19:23:05.231Z,10.47
2019-01-31T19:25:33.861Z,11.80
2019-01-31T19:28:02.405Z,10.83
2019-01-31T19:30:33.376Z,12.30
2019-01-31T19:33:02.478Z,10.10
2019-01-31T19:35:31.124Z,14.90
2019-01-31T19:38:02.149Z,14.73
2019-01-31T19:40:34.969Z,12.53
2019-01-31T19:43:03.854Z,11.30
2019-01-31T19:45:38.605Z,11.10
2019-01-31T19:48:07.828Z,11.40
2019-01-31T19:50:36.706Z,17.87
2019-01-31T19:53:05.891Z,27.40
2019-01-31T19:55:34.797Z,35.27
2019-01-31T19:58:03.540Z,13.40
2019-01-31T20:00:32.150Z,16.43
2019-01-31T20:03:00.822Z,8.37
2019-01-31T20:05:29.562Z,8.87
2019-01-31T20:07:58.242Z,10.40
2019-01-31T20:10:31.421Z,20.83
2019-01-31T20:13:00.059Z,22.33
2019-01-31T20:15:29.855Z,25.23
2019-01-31T20:17:58.554Z,34.37
2019-01-31T20:20:29.072Z,30.30
2019-01-31T20:22:58.574Z,34.73
2019-01-31T20:25:28.557Z,21.60
2019-01-31T20:27:57.127Z,13.80
2019-01-31T20:30:28.173Z,9.37
2019-01-31T20:32:57.311Z,9.73
2019-01-31T20:35:25.923Z,10.23
2019-01-31T20:37:54.634Z,10.07
2019-01-31T20:40:26.250Z,9.33
2019-01-31T20:42:54.987Z,9.30
2019-01-31T20:45:23.599Z,10.77
2019-01-31T20:47:52.230Z,8.37
2019-01-31T20:50:26.218Z,10.63
2019-01-31T20:52:54.845Z,8.90
2019-01-31T20:55:23.383Z,10.00
2019-01-31T20:57:52.096Z,18.03
2019-01-31T21:00:25.486Z,11.47
2019-01-31T21:02:54.310Z,11.53
2019-01-31T21:05:25.804Z,11.60
2019-01-31T21:07:53.358Z,11.87
2019-01-31T21:10:22.039Z,12.80
2019-01-31T21:12:50.745Z,7.10
2019-01-31T21:15:21.655Z,7.87
2019-01-31T21:17:50.368Z,13.87
2019-01-31T21:20:21.155Z,9.13
2019-01-31T21:22:50.158Z,10.03
2019-01-31T21:25:19.341Z,8.50
2019-01-31T21:27:49.037Z,12.23
2019-01-31T21:30:20.655Z,7.00
2019-01-31T21:32:49.285Z,8.30
2019-01-31T21:35:18.765Z,7.43
2019-01-31T21:37:47.253Z,5.43
2019-01-31T21:40:18.132Z,6.30
2019-01-31T21:42:46.626Z,6.20
2019-01-31T21:45:17.979Z,5.70
2019-01-31T21:47:46.544Z,5.43
2019-01-31T21:50:20.960Z,6.10
2019-01-31T21:52:49.596Z,5.77
2019-01-31T21:55:18.473Z,12.57
2019-01-31T21:57:47.033Z,7.63
2019-01-31T22:00:24.263Z,7.60
2019-01-31T22:02:52.971Z,6.90
2019-01-31T22:05:21.749Z,5.60
2019-01-31T22:07:50.306Z,9.17
2019-01-31T22:10:20.103Z,7.33
2019-01-31T22:12:48.827Z,7.97
2019-01-31T22:15:19.910Z,7.90
2019-01-31T22:17:48.467Z,6.57
2019-01-31T22:20:17.136Z,8.03
2019-01-31T22:22:45.672Z,7.17
2019-01-31T22:25:16.770Z,8.03
2019-01-31T22:27:45.225Z,4.63
2019-01-31T22:30:31.275Z,5.60
2019-01-31T22:32:59.902Z,5.80
2019-01-31T22:35:28.788Z,10.10
2019-01-31T22:37:57.389Z,6.63
2019-01-31T22:40:26.027Z,9.67
2019-01-31T22:42:54.570Z,6.10
2019-01-31T22:45:24.264Z,5.50
2019-01-31T22:47:52.872Z,7.63
2019-01-31T22:50:23.169Z,5.50
2019-01-31T22:52:52.149Z,5.20
2019-01-31T22:55:22.746Z,7.57
2019-01-31T22:57:51.286Z,4.27
2019-01-31T23:00:57.263Z,4.67
2019-01-31T23:03:25.875Z,6.93
2019-01-31T23:05:54.706Z,4.60
2019-01-31T23:08:23.325Z,4.50
2019-01-31T23:10:51.954Z,5.17
2019-01-31T23:13:20.473Z,4.27
2019-01-31T23:15:49.121Z,6.20
2019-01-31T23:18:17.727Z,5.40
2019-01-31T23:20:46.299Z,6.03
2019-01-31T23:23:14.848Z,4.80
2019-01-31T23:25:43.765Z,5.13
2019-01-31T23:28:12.380Z,5.33
2019-01-31T23:30:41.177Z,6.20
2019-01-31T23:33:09.642Z,5.10
2019-01-31T23:35:38.201Z,4.70
2019-01-31T23:38:06.811Z,5.30
2019-01-31T23:40:35.375Z,4.97
2019-01-31T23:43:04.277Z,4.60
2019-01-31T23:45:33.029Z,5.30
2019-01-31T23:48:01.494Z,7.63
2019-01-31T23:50:30.141Z,7.77
2019-01-31T23:52:58.673Z,6.87
2019-01-31T23:55:27.162Z,5.80
2019-01-31T23:57:55.836Z,9.00
